sensor_id;sensor_type;location;lat;lon;timestamp;temperature;humidity
22532;DHT22;11432;46.924;7.114;2022-07-30T00:00:50;18.20;99.90
22532;DHT22;11432;46.924;7.114;2022-07-30T00:03:16;18.30;99.90
22532;DHT22;11432;46.924;7.114;2022-07-30T00:05:41;18.10;99.90
22532;DHT22;11432;46.924;7.114;2022-07-30T00:08:07;18.10;99.90
22532;DHT22;11432;46.924;7.114;2022-07-30T00:10:32;18.00;99.90
22532;DHT22;11432;46.924;7.114;2022-07-30T00:12:58;18.00;99.90
22532;DHT22;11432;46.924;7.114;2022-07-30T00:15:24;17.90;99.90
22532;DHT22;11432;46.924;7.114;2022-07-30T00:17:49;17.80;99.90
22532;DHT22;11432;46.924;7.114;2022-07-30T00:20:15;17.70;99.90
22532;DHT22;11432;46.924;7.114;2022-07-30T00:22:41;17.80;99.90
22532;DHT22;11432;46.924;7.114;2022-07-30T00:25:06;17.80;99.90
22532;DHT22;11432;46.924;7.114;2022-07-30T00:27:32;17.90;99.90
22532;DHT22;11432;46.924;7.114;2022-07-30T00:29:59;17.90;99.90
22532;DHT22;11432;46.924;7.114;2022-07-30T00:32:25;17.80;99.90
22532;DHT22;11432;46.924;7.114;2022-07-30T00:34:50;17.80;99.90
22532;DHT22;11432;46.924;7.114;2022-07-30T00:37:16;17.90;99.90
22532;DHT22;11432;46.924;7.114;2022-07-30T00:39:42;17.90;99.90
22532;DHT22;11432;46.924;7.114;2022-07-30T00:42:07;17.90;99.90
22532;DHT22;11432;46.924;7.114;2022-07-30T00:44:33;17.80;99.90
22532;DHT22;11432;46.924;7.114;2022-07-30T00:46:58;17.70;99.90
22532;DHT22;11432;46.924;7.114;2022-07-30T00:49:24;17.70;99.90
22532;DHT22;11432;46.924;7.114;2022-07-30T00:51:50;17.70;99.90
22532;DHT22;11432;46.924;7.114;2022-07-30T00:54:16;17.60;99.90
22532;DHT22;11432;46.924;7.114;2022-07-30T00:56:42;17.70;99.90
22532;DHT22;11432;46.924;7.114;2022-07-30T00:59:08;17.80;99.90
22532;DHT22;11432;46.924;7.114;2022-07-30T01:01:33;17.80;99.90
22532;DHT22;11432;46.924;7.114;2022-07-30T01:03:59;17.80;99.90
22532;DHT22;11432;46.924;7.114;2022-07-30T01:06:25;17.80;99.90
22532;DHT22;11432;46.924;7.114;2022-07-30T01:08:50;17.90;99.90
22532;DHT22;11432;46.924;7.114;2022-07-30T01:11:16;17.80;99.90
22532;DHT22;11432;46.924;7.114;2022-07-30T01:13:42;17.80;99.90
22532;DHT22;11432;46.924;7.114;2022-07-30T01:16:08;17.80;99.90
22532;DHT22;11432;46.924;7.114;2022-07-30T01:18:33;17.90;99.90
22532;DHT22;11432;46.924;7.114;2022-07-30T01:21:19;17.90;99.90
22532;DHT22;11432;46.924;7.114;2022-07-30T01:23:47;17.90;99.90
22532;DHT22;11432;46.924;7.114;2022-07-30T01:26:15;17.80;99.90
22532;DHT22;11432;46.924;7.114;2022-07-30T01:28:49;17.80;99.90
22532;DHT22;11432;46.924;7.114;2022-07-30T01:31:16;17.60;99.90
22532;DHT22;11432;46.924;7.114;2022-07-30T01:33:44;17.50;99.90
22532;DHT22;11432;46.924;7.114;2022-07-30T01:36:10;17.30;99.90
22532;DHT22;11432;46.924;7.114;2022-07-30T01:38:39;17.20;99.90
22532;DHT22;11432;46.924;7.114;2022-07-30T01:41:05;17.20;99.90
22532;DHT22;11432;46.924;7.114;2022-07-30T01:43:32;17.10;99.90
22532;DHT22;11432;46.924;7.114;2022-07-30T01:45:58;17.10;99.90
22532;DHT22;11432;46.924;7.114;2022-07-30T01:48:25;17.10;99.90
22532;DHT22;11432;46.924;7.114;2022-07-30T01:50:53;17.10;99.90
22532;DHT22;11432;46.924;7.114;2022-07-30T01:53:21;17.00;99.90
22532;DHT22;11432;46.924;7.114;2022-07-30T01:55:48;17.20;99.90
22532;DHT22;11432;46.924;7.114;2022-07-30T01:58:15;17.40;99.90
22532;DHT22;11432;46.924;7.114;2022-07-30T02:00:41;17.40;99.90
22532;DHT22;11432;46.924;7.114;2022-07-30T02:03:08;17.50;99.90
22532;DHT22;11432;46.924;7.114;2022-07-30T02:05:35;17.40;99.90
22532;DHT22;11432;46.924;7.114;2022-07-30T02:08:02;17.30;99.90
22532;DHT22;11432;46.924;7.114;2022-07-30T02:10:34;17.40;99.90
22532;DHT22;11432;46.924;7.114;2022-07-30T02:13:02;17.30;99.90
22532;DHT22;11432;46.924;7.114;2022-07-30T02:15:33;17.30;99.90
22532;DHT22;11432;46.924;7.114;2022-07-30T02:18:24;17.20;99.90
22532;DHT22;11432;46.924;7.114;2022-07-30T02:20:50;17.20;99.90
22532;DHT22;11432;46.924;7.114;2022-07-30T02:23:18;17.40;99.90
22532;DHT22;11432;46.924;7.114;2022-07-30T02:25:46;17.40;99.90
22532;DHT22;11432;46.924;7.114;2022-07-30T02:28:13;17.50;99.90
22532;DHT22;11432;46.924;7.114;2022-07-30T02:30:40;17.50;99.90
22532;DHT22;11432;46.924;7.114;2022-07-30T02:33:08;17.40;99.90
22532;DHT22;11432;46.924;7.114;2022-07-30T02:35:34;17.30;99.90
22532;DHT22;11432;46.924;7.114;2022-07-30T02:38:01;17.20;99.90
22532;DHT22;11432;46.924;7.114;2022-07-30T02:40:27;17.10;99.90
22532;DHT22;11432;46.924;7.114;2022-07-30T02:42:53;17.20;99.90
22532;DHT22;11432;46.924;7.114;2022-07-30T02:45:19;17.20;99.90
22532;DHT22;11432;46.924;7.114;2022-07-30T02:47:53;17.20;99.90
22532;DHT22;11432;46.924;7.114;2022-07-30T02:50:20;17.30;99.90
22532;DHT22;11432;46.924;7.114;2022-07-30T02:52:46;17.30;99.90
22532;DHT22;11432;46.924;7.114;2022-07-30T02:55:12;17.30;99.90
22532;DHT22;11432;46.924;7.114;2022-07-30T02:57:40;17.40;99.90
22532;DHT22;11432;46.924;7.114;2022-07-30T03:00:06;17.60;99.90
22532;DHT22;11432;46.924;7.114;2022-07-30T03:02:32;17.50;99.90
22532;DHT22;11432;46.924;7.114;2022-07-30T03:04:58;17.50;99.90
22532;DHT22;11432;46.924;7.114;2022-07-30T03:07:24;17.50;99.90
22532;DHT22;11432;46.924;7.114;2022-07-30T03:09:50;17.40;99.90
22532;DHT22;11432;46.924;7.114;2022-07-30T03:12:17;17.40;99.90
22532;DHT22;11432;46.924;7.114;2022-07-30T03:14:43;17.30;99.90
22532;DHT22;11432;46.924;7.114;2022-07-30T03:17:08;17.40;99.90
22532;DHT22;11432;46.924;7.114;2022-07-30T03:19:37;17.50;99.90
22532;DHT22;11432;46.924;7.114;2022-07-30T03:22:03;17.60;99.90
22532;DHT22;11432;46.924;7.114;2022-07-30T03:24:31;17.60;99.90
22532;DHT22;11432;46.924;7.114;2022-07-30T03:26:57;17.60;99.90
22532;DHT22;11432;46.924;7.114;2022-07-30T03:29:25;17.50;99.90
22532;DHT22;11432;46.924;7.114;2022-07-30T03:31:51;17.30;99.90
22532;DHT22;11432;46.924;7.114;2022-07-30T03:34:17;17.10;99.90
22532;DHT22;11432;46.924;7.114;2022-07-30T03:36:43;17.30;99.90
22532;DHT22;11432;46.924;7.114;2022-07-30T03:39:09;17.50;99.90
22532;DHT22;11432;46.924;7.114;2022-07-30T03:41:35;17.70;99.90
22532;DHT22;11432;46.924;7.114;2022-07-30T03:44:02;17.70;99.90
22532;DHT22;11432;46.924;7.114;2022-07-30T03:46:27;17.60;99.90
22532;DHT22;11432;46.924;7.114;2022-07-30T03:48:53;17.50;99.90
22532;DHT22;11432;46.924;7.114;2022-07-30T03:51:19;17.40;99.90
22532;DHT22;11432;46.924;7.114;2022-07-30T03:53:45;17.30;99.90
22532;DHT22;11432;46.924;7.114;2022-07-30T03:56:11;17.10;99.90
22532;DHT22;11432;46.924;7.114;2022-07-30T03:58:38;17.10;99.90
22532;DHT22;11432;46.924;7.114;2022-07-30T04:01:03;17.20;99.90
22532;DHT22;11432;46.924;7.114;2022-07-30T04:03:30;17.20;99.90
22532;DHT22;11432;46.924;7.114;2022-07-30T04:05:56;17.30;99.90
22532;DHT22;11432;46.924;7.114;2022-07-30T04:08:22;17.10;99.90
22532;DHT22;11432;46.924;7.114;2022-07-30T04:10:48;17.00;99.90
22532;DHT22;11432;46.924;7.114;2022-07-30T04:13:13;16.90;99.90
22532;DHT22;11432;46.924;7.114;2022-07-30T04:15:44;17.00;99.90
22532;DHT22;11432;46.924;7.114;2022-07-30T04:18:11;16.80;99.90
22532;DHT22;11432;46.924;7.114;2022-07-30T04:20:40;16.90;99.90
22532;DHT22;11432;46.924;7.114;2022-07-30T04:23:08;16.80;99.90
22532;DHT22;11432;46.924;7.114;2022-07-30T04:25:33;16.80;99.90
22532;DHT22;11432;46.924;7.114;2022-07-30T04:27:59;16.80;99.90
22532;DHT22;11432;46.924;7.114;2022-07-30T04:30:25;16.80;99.90
22532;DHT22;11432;46.924;7.114;2022-07-30T04:32:51;16.70;99.90
22532;DHT22;11432;46.924;7.114;2022-07-30T04:35:18;16.70;99.90
22532;DHT22;11432;46.924;7.114;2022-07-30T04:37:50;16.60;99.90
22532;DHT22;11432;46.924;7.114;2022-07-30T04:40:16;16.60;99.90
22532;DHT22;11432;46.924;7.114;2022-07-30T04:42:41;16.80;99.90
22532;DHT22;11432;46.924;7.114;2022-07-30T04:45:07;16.70;99.90
22532;DHT22;11432;46.924;7.114;2022-07-30T04:47:32;16.70;99.90
22532;DHT22;11432;46.924;7.114;2022-07-30T04:49:58;16.80;99.90
22532;DHT22;11432;46.924;7.114;2022-07-30T04:52:24;16.80;99.90
22532;DHT22;11432;46.924;7.114;2022-07-30T04:54:58;16.70;99.90
22532;DHT22;11432;46.924;7.114;2022-07-30T04:57:26;16.80;99.90
22532;DHT22;11432;46.924;7.114;2022-07-30T04:59:52;16.90;99.90
22532;DHT22;11432;46.924;7.114;2022-07-30T05:02:19;16.90;99.90
22532;DHT22;11432;46.924;7.114;2022-07-30T05:04:45;17.10;99.90
22532;DHT22;11432;46.924;7.114;2022-07-30T05:07:11;17.00;99.90
22532;DHT22;11432;46.924;7.114;2022-07-30T05:09:38;17.00;99.90
22532;DHT22;11432;46.924;7.114;2022-07-30T05:12:04;17.00;99.90
22532;DHT22;11432;46.924;7.114;2022-07-30T05:14:29;17.10;99.90
22532;DHT22;11432;46.924;7.114;2022-07-30T05:16:55;17.30;99.90
22532;DHT22;11432;46.924;7.114;2022-07-30T05:19:21;17.30;99.90
22532;DHT22;11432;46.924;7.114;2022-07-30T05:21:47;17.50;99.90
22532;DHT22;11432;46.924;7.114;2022-07-30T05:24:13;17.50;99.90
22532;DHT22;11432;46.924;7.114;2022-07-30T05:26:38;17.40;99.90
22532;DHT22;11432;46.924;7.114;2022-07-30T05:29:04;17.40;99.90
22532;DHT22;11432;46.924;7.114;2022-07-30T05:31:29;17.40;99.90
22532;DHT22;11432;46.924;7.114;2022-07-30T05:33:55;17.40;99.90
22532;DHT22;11432;46.924;7.114;2022-07-30T05:36:20;17.60;99.90
22532;DHT22;11432;46.924;7.114;2022-07-30T05:38:46;17.60;99.90
22532;DHT22;11432;46.924;7.114;2022-07-30T05:41:12;17.60;99.90
22532;DHT22;11432;46.924;7.114;2022-07-30T05:43:38;17.70;99.90
22532;DHT22;11432;46.924;7.114;2022-07-30T05:46:04;17.90;99.90
22532;DHT22;11432;46.924;7.114;2022-07-30T05:48:30;17.90;99.90
22532;DHT22;11432;46.924;7.114;2022-07-30T05:50:59;17.90;99.90
22532;DHT22;11432;46.924;7.114;2022-07-30T05:53:24;17.90;99.90
22532;DHT22;11432;46.924;7.114;2022-07-30T05:55:50;17.90;99.90
22532;DHT22;11432;46.924;7.114;2022-07-30T05:58:15;17.90;99.90
22532;DHT22;11432;46.924;7.114;2022-07-30T06:00:41;18.00;99.90
22532;DHT22;11432;46.924;7.114;2022-07-30T06:03:07;18.00;99.90
22532;DHT22;11432;46.924;7.114;2022-07-30T06:05:32;18.10;99.90
22532;DHT22;11432;46.924;7.114;2022-07-30T06:07:58;18.20;99.90
22532;DHT22;11432;46.924;7.114;2022-07-30T06:10:24;18.20;99.90
22532;DHT22;11432;46.924;7.114;2022-07-30T06:12:49;18.30;99.90
22532;DHT22;11432;46.924;7.114;2022-07-30T06:15:15;18.40;99.90
22532;DHT22;11432;46.924;7.114;2022-07-30T06:17:41;18.50;99.90
22532;DHT22;11432;46.924;7.114;2022-07-30T06:20:07;18.50;99.90
22532;DHT22;11432;46.924;7.114;2022-07-30T06:22:33;18.70;99.90
22532;DHT22;11432;46.924;7.114;2022-07-30T06:24:58;18.90;99.90
22532;DHT22;11432;46.924;7.114;2022-07-30T06:27:24;19.00;99.90
22532;DHT22;11432;46.924;7.114;2022-07-30T06:29:51;19.10;99.90
22532;DHT22;11432;46.924;7.114;2022-07-30T06:32:17;19.20;99.90
22532;DHT22;11432;46.924;7.114;2022-07-30T06:34:43;19.20;99.90
22532;DHT22;11432;46.924;7.114;2022-07-30T06:37:09;19.30;99.90
22532;DHT22;11432;46.924;7.114;2022-07-30T06:39:35;19.40;99.90
22532;DHT22;11432;46.924;7.114;2022-07-30T06:42:00;19.40;99.90
22532;DHT22;11432;46.924;7.114;2022-07-30T06:44:26;19.50;99.90
22532;DHT22;11432;46.924;7.114;2022-07-30T06:46:51;19.50;91.50
22532;DHT22;11432;46.924;7.114;2022-07-30T06:49:17;19.60;1.00
22532;DHT22;11432;46.924;7.114;2022-07-30T06:51:42;19.70;1.00
22532;DHT22;11432;46.924;7.114;2022-07-30T06:54:10;19.80;1.00
22532;DHT22;11432;46.924;7.114;2022-07-30T06:56:35;19.90;1.00
22532;DHT22;11432;46.924;7.114;2022-07-30T06:59:01;19.90;1.00
22532;DHT22;11432;46.924;7.114;2022-07-30T07:01:27;20.00;1.00
22532;DHT22;11432;46.924;7.114;2022-07-30T07:03:52;20.00;1.00
22532;DHT22;11432;46.924;7.114;2022-07-30T07:06:18;20.10;1.00
22532;DHT22;11432;46.924;7.114;2022-07-30T07:08:43;20.00;1.00
22532;DHT22;11432;46.924;7.114;2022-07-30T07:11:09;20.00;1.00
22532;DHT22;11432;46.924;7.114;2022-07-30T07:13:34;20.00;1.00
22532;DHT22;11432;46.924;7.114;2022-07-30T07:16:00;20.10;1.00
22532;DHT22;11432;46.924;7.114;2022-07-30T07:18:26;20.10;1.00
22532;DHT22;11432;46.924;7.114;2022-07-30T07:22:26;21.20;1.00
22532;DHT22;11432;46.924;7.114;2022-07-30T07:24:52;20.30;1.00
22532;DHT22;11432;46.924;7.114;2022-07-30T07:27:17;20.40;1.00
22532;DHT22;11432;46.924;7.114;2022-07-30T07:29:43;20.40;1.00
22532;DHT22;11432;46.924;7.114;2022-07-30T07:32:09;20.50;1.00
22532;DHT22;11432;46.924;7.114;2022-07-30T07:34:34;20.50;1.00
22532;DHT22;11432;46.924;7.114;2022-07-30T07:37:00;20.40;1.00
22532;DHT22;11432;46.924;7.114;2022-07-30T07:39:25;20.50;1.00
22532;DHT22;11432;46.924;7.114;2022-07-30T07:41:51;20.60;1.00
22532;DHT22;11432;46.924;7.114;2022-07-30T07:44:17;20.70;1.00
22532;DHT22;11432;46.924;7.114;2022-07-30T07:46:42;20.80;7.80
22532;DHT22;11432;46.924;7.114;2022-07-30T07:49:08;20.80;16.30
22532;DHT22;11432;46.924;7.114;2022-07-30T07:51:34;21.00;48.90
22532;DHT22;11432;46.924;7.114;2022-07-30T07:54:00;21.10;51.80
22532;DHT22;11432;46.924;7.114;2022-07-30T07:56:26;21.30;84.20
22532;DHT22;11432;46.924;7.114;2022-07-30T07:58:52;21.40;70.60
22532;DHT22;11432;46.924;7.114;2022-07-30T08:01:19;21.50;83.60
22532;DHT22;11432;46.924;7.114;2022-07-30T08:03:46;21.60;77.60
22532;DHT22;11432;46.924;7.114;2022-07-30T08:06:11;21.50;83.10
22532;DHT22;11432;46.924;7.114;2022-07-30T08:08:37;21.50;67.90
22532;DHT22;11432;46.924;7.114;2022-07-30T08:11:04;21.50;70.50
22532;DHT22;11432;46.924;7.114;2022-07-30T08:13:30;21.60;77.70
22532;DHT22;11432;46.924;7.114;2022-07-30T08:15:57;21.70;82.40
22532;DHT22;11432;46.924;7.114;2022-07-30T08:18:23;21.70;67.20
22532;DHT22;11432;46.924;7.114;2022-07-30T08:20:49;21.80;84.80
22532;DHT22;11432;46.924;7.114;2022-07-30T08:23:16;21.80;81.90
22532;DHT22;11432;46.924;7.114;2022-07-30T08:25:43;21.90;66.60
22532;DHT22;11432;46.924;7.114;2022-07-30T08:28:09;21.90;83.20
22532;DHT22;11432;46.924;7.114;2022-07-30T08:30:35;22.00;80.50
22532;DHT22;11432;46.924;7.114;2022-07-30T08:33:01;22.00;85.00
22532;DHT22;11432;46.924;7.114;2022-07-30T08:35:27;22.10;86.70
22532;DHT22;11432;46.924;7.114;2022-07-30T08:37:52;22.20;87.10
22532;DHT22;11432;46.924;7.114;2022-07-30T08:40:18;22.30;85.30
22532;DHT22;11432;46.924;7.114;2022-07-30T08:42:45;22.40;81.30
22532;DHT22;11432;46.924;7.114;2022-07-30T08:45:12;22.30;90.00
22532;DHT22;11432;46.924;7.114;2022-07-30T08:47:39;22.40;91.70
22532;DHT22;11432;46.924;7.114;2022-07-30T08:50:07;22.60;91.90
22532;DHT22;11432;46.924;7.114;2022-07-30T08:52:35;22.80;87.60
22532;DHT22;11432;46.924;7.114;2022-07-30T08:55:02;22.90;89.60
22532;DHT22;11432;46.924;7.114;2022-07-30T08:57:29;22.90;85.60
22532;DHT22;11432;46.924;7.114;2022-07-30T08:59:59;22.90;90.40
22532;DHT22;11432;46.924;7.114;2022-07-30T09:02:26;23.10;87.70
22532;DHT22;11432;46.924;7.114;2022-07-30T09:04:52;23.20;91.00
22532;DHT22;11432;46.924;7.114;2022-07-30T09:07:18;23.30;87.70
22532;DHT22;11432;46.924;7.114;2022-07-30T09:09:44;23.30;90.20
22532;DHT22;11432;46.924;7.114;2022-07-30T09:20:14;23.70;91.40
22532;DHT22;11432;46.924;7.114;2022-07-30T09:23:08;23.40;88.20
22532;DHT22;11432;46.924;7.114;2022-07-30T09:25:35;23.40;87.20
22532;DHT22;11432;46.924;7.114;2022-07-30T09:28:02;23.40;90.60
22532;DHT22;11432;46.924;7.114;2022-07-30T09:30:44;23.60;84.80
22532;DHT22;11432;46.924;7.114;2022-07-30T09:33:10;23.70;81.00
22532;DHT22;11432;46.924;7.114;2022-07-30T09:35:36;23.70;78.10
22532;DHT22;11432;46.924;7.114;2022-07-30T09:38:02;23.90;77.40
22532;DHT22;11432;46.924;7.114;2022-07-30T09:40:29;23.70;73.10
22532;DHT22;11432;46.924;7.114;2022-07-30T09:43:07;24.00;77.90
22532;DHT22;11432;46.924;7.114;2022-07-30T09:45:33;24.10;75.50
22532;DHT22;11432;46.924;7.114;2022-07-30T09:47:59;24.50;79.30
22532;DHT22;11432;46.924;7.114;2022-07-30T09:50:24;24.70;78.40
22532;DHT22;11432;46.924;7.114;2022-07-30T09:52:52;25.00;76.30
22532;DHT22;11432;46.924;7.114;2022-07-30T09:55:30;25.20;76.80
22532;DHT22;11432;46.924;7.114;2022-07-30T09:57:58;25.50;74.60
22532;DHT22;11432;46.924;7.114;2022-07-30T10:00:26;25.80;71.90
22532;DHT22;11432;46.924;7.114;2022-07-30T10:02:53;26.10;73.30
22532;DHT22;11432;46.924;7.114;2022-07-30T10:05:19;26.20;64.50
22532;DHT22;11432;46.924;7.114;2022-07-30T10:07:55;26.20;72.80
22532;DHT22;11432;46.924;7.114;2022-07-30T10:10:23;25.90;73.60
22532;DHT22;11432;46.924;7.114;2022-07-30T10:13:08;25.30;74.20
22532;DHT22;11432;46.924;7.114;2022-07-30T10:15:35;25.50;67.60
22532;DHT22;11432;46.924;7.114;2022-07-30T10:18:02;25.60;66.60
22532;DHT22;11432;46.924;7.114;2022-07-30T10:20:29;25.80;65.80
22532;DHT22;11432;46.924;7.114;2022-07-30T10:22:55;26.00;68.30
22532;DHT22;11432;46.924;7.114;2022-07-30T10:25:22;26.30;62.20
22532;DHT22;11432;46.924;7.114;2022-07-30T10:27:49;26.60;65.80
22532;DHT22;11432;46.924;7.114;2022-07-30T10:30:15;27.00;62.70
22532;DHT22;11432;46.924;7.114;2022-07-30T10:32:42;27.10;63.40
22532;DHT22;11432;46.924;7.114;2022-07-30T10:35:09;27.10;57.80
22532;DHT22;11432;46.924;7.114;2022-07-30T10:37:42;26.60;55.70
22532;DHT22;11432;46.924;7.114;2022-07-30T10:40:29;26.10;60.20
22532;DHT22;11432;46.924;7.114;2022-07-30T10:48:47;25.10;64.40
22532;DHT22;11432;46.924;7.114;2022-07-30T10:51:13;25.00;69.70
22532;DHT22;11432;46.924;7.114;2022-07-30T10:53:41;25.00;63.90
22532;DHT22;11432;46.924;7.114;2022-07-30T10:56:18;25.00;60.50
22532;DHT22;11432;46.924;7.114;2022-07-30T10:59:06;25.00;60.90
22532;DHT22;11432;46.924;7.114;2022-07-30T11:04:18;24.90;66.80
22532;DHT22;11432;46.924;7.114;2022-07-30T11:06:45;25.10;66.70
22532;DHT22;11432;46.924;7.114;2022-07-30T11:09:34;25.30;61.50
22532;DHT22;11432;46.924;7.114;2022-07-30T11:12:00;25.30;63.80
22532;DHT22;11432;46.924;7.114;2022-07-30T11:15:01;25.40;65.60
22532;DHT22;11432;46.924;7.114;2022-07-30T11:18:00;25.50;65.40
22532;DHT22;11432;46.924;7.114;2022-07-30T11:20:27;25.60;61.80
22532;DHT22;11432;46.924;7.114;2022-07-30T11:22:53;26.00;60.40
22532;DHT22;11432;46.924;7.114;2022-07-30T11:27:53;26.30;61.80
22532;DHT22;11432;46.924;7.114;2022-07-30T11:32:49;26.70;61.20
22532;DHT22;11432;46.924;7.114;2022-07-30T11:35:27;26.60;66.40
22532;DHT22;11432;46.924;7.114;2022-07-30T11:40:27;27.00;56.20
22532;DHT22;11432;46.924;7.114;2022-07-30T11:43:25;27.30;54.10
22532;DHT22;11432;46.924;7.114;2022-07-30T11:45:51;28.00;56.30
22532;DHT22;11432;46.924;7.114;2022-07-30T11:48:23;28.10;54.40
22532;DHT22;11432;46.924;7.114;2022-07-30T11:50:48;27.60;47.20
22532;DHT22;11432;46.924;7.114;2022-07-30T11:53:19;27.20;45.90
22532;DHT22;11432;46.924;7.114;2022-07-30T11:55:50;27.00;49.90
22532;DHT22;11432;46.924;7.114;2022-07-30T11:58:28;26.80;48.00
22532;DHT22;11432;46.924;7.114;2022-07-30T12:01:20;26.60;50.60
22532;DHT22;11432;46.924;7.114;2022-07-30T12:03:46;26.30;49.30
22532;DHT22;11432;46.924;7.114;2022-07-30T12:06:14;26.20;51.80
22532;DHT22;11432;46.924;7.114;2022-07-30T12:08:49;26.30;49.20
22532;DHT22;11432;46.924;7.114;2022-07-30T12:11:15;26.30;47.20
22532;DHT22;11432;46.924;7.114;2022-07-30T12:13:42;27.10;59.70
22532;DHT22;11432;46.924;7.114;2022-07-30T12:16:10;27.40;53.40
22532;DHT22;11432;46.924;7.114;2022-07-30T12:18:36;27.40;49.40
22532;DHT22;11432;46.924;7.114;2022-07-30T12:21:03;27.60;49.20
22532;DHT22;11432;46.924;7.114;2022-07-30T12:23:30;28.10;44.80
22532;DHT22;11432;46.924;7.114;2022-07-30T12:25:57;28.40;46.70
22532;DHT22;11432;46.924;7.114;2022-07-30T12:28:28;28.20;41.30
22532;DHT22;11432;46.924;7.114;2022-07-30T12:30:55;28.10;42.90
22532;DHT22;11432;46.924;7.114;2022-07-30T12:33:22;28.60;40.40
22532;DHT22;11432;46.924;7.114;2022-07-30T12:38:18;28.90;38.20
22532;DHT22;11432;46.924;7.114;2022-07-30T12:40:57;28.00;39.40
22532;DHT22;11432;46.924;7.114;2022-07-30T12:46:12;28.70;38.70
22532;DHT22;11432;46.924;7.114;2022-07-30T12:48:51;29.80;37.80
22532;DHT22;11432;46.924;7.114;2022-07-30T12:51:17;30.60;39.50
22532;DHT22;11432;46.924;7.114;2022-07-30T12:53:42;31.10;39.40
22532;DHT22;11432;46.924;7.114;2022-07-30T12:56:12;31.40;33.40
22532;DHT22;11432;46.924;7.114;2022-07-30T12:58:38;30.20;33.60
22532;DHT22;11432;46.924;7.114;2022-07-30T13:01:05;29.30;36.00
22532;DHT22;11432;46.924;7.114;2022-07-30T13:03:30;28.30;36.20
22532;DHT22;11432;46.924;7.114;2022-07-30T13:06:11;27.50;37.70
22532;DHT22;11432;46.924;7.114;2022-07-30T13:08:44;27.20;39.60
22532;DHT22;11432;46.924;7.114;2022-07-30T13:11:11;26.90;44.50
22532;DHT22;11432;46.924;7.114;2022-07-30T13:13:37;26.90;40.90
22532;DHT22;11432;46.924;7.114;2022-07-30T13:16:04;27.00;40.90
22532;DHT22;11432;46.924;7.114;2022-07-30T13:18:31;27.00;42.20
22532;DHT22;11432;46.924;7.114;2022-07-30T13:20:58;27.60;40.10
22532;DHT22;11432;46.924;7.114;2022-07-30T13:23:25;28.30;39.60
22532;DHT22;11432;46.924;7.114;2022-07-30T13:25:52;28.30;39.20
22532;DHT22;11432;46.924;7.114;2022-07-30T13:28:18;27.90;38.90
22532;DHT22;11432;46.924;7.114;2022-07-30T13:30:44;27.80;40.50
22532;DHT22;11432;46.924;7.114;2022-07-30T13:33:10;28.00;37.60
22532;DHT22;11432;46.924;7.114;2022-07-30T13:35:36;29.60;35.60
22532;DHT22;11432;46.924;7.114;2022-07-30T13:38:02;30.20;36.50
22532;DHT22;11432;46.924;7.114;2022-07-30T13:40:28;29.80;32.60
22532;DHT22;11432;46.924;7.114;2022-07-30T13:42:57;29.00;33.50
22532;DHT22;11432;46.924;7.114;2022-07-30T13:45:22;30.10;35.00
22532;DHT22;11432;46.924;7.114;2022-07-30T13:47:48;31.20;30.30
22532;DHT22;11432;46.924;7.114;2022-07-30T13:50:13;31.30;29.50
22532;DHT22;11432;46.924;7.114;2022-07-30T13:52:39;31.90;28.50
22532;DHT22;11432;46.924;7.114;2022-07-30T13:55:05;32.10;29.10
22532;DHT22;11432;46.924;7.114;2022-07-30T13:57:30;33.20;25.40
22532;DHT22;11432;46.924;7.114;2022-07-30T13:59:56;32.20;31.30
22532;DHT22;11432;46.924;7.114;2022-07-30T14:02:22;31.30;28.90
22532;DHT22;11432;46.924;7.114;2022-07-30T14:04:47;30.10;29.70
22532;DHT22;11432;46.924;7.114;2022-07-30T14:07:13;29.90;31.60
22532;DHT22;11432;46.924;7.114;2022-07-30T14:09:39;31.00;31.90
22532;DHT22;11432;46.924;7.114;2022-07-30T14:12:05;31.90;28.30
22532;DHT22;11432;46.924;7.114;2022-07-30T14:14:30;32.10;29.20
22532;DHT22;11432;46.924;7.114;2022-07-30T14:16:56;33.50;26.00
22532;DHT22;11432;46.924;7.114;2022-07-30T14:19:22;34.20;26.20
22532;DHT22;11432;46.924;7.114;2022-07-30T14:21:47;33.90;25.30
22532;DHT22;11432;46.924;7.114;2022-07-30T14:24:13;33.00;24.90
22532;DHT22;11432;46.924;7.114;2022-07-30T14:26:41;32.00;24.70
22532;DHT22;11432;46.924;7.114;2022-07-30T14:29:08;32.50;25.10
22532;DHT22;11432;46.924;7.114;2022-07-30T14:31:35;33.00;24.10
22532;DHT22;11432;46.924;7.114;2022-07-30T14:34:01;33.70;20.90
22532;DHT22;11432;46.924;7.114;2022-07-30T14:36:27;33.90;20.30
22532;DHT22;11432;46.924;7.114;2022-07-30T14:38:55;33.60;21.70
22532;DHT22;11432;46.924;7.114;2022-07-30T14:41:22;33.40;21.20
22532;DHT22;11432;46.924;7.114;2022-07-30T14:43:47;33.50;21.90
22532;DHT22;11432;46.924;7.114;2022-07-30T14:46:13;33.40;20.60
22532;DHT22;11432;46.924;7.114;2022-07-30T14:48:39;33.60;21.60
22532;DHT22;11432;46.924;7.114;2022-07-30T14:51:04;34.40;21.30
22532;DHT22;11432;46.924;7.114;2022-07-30T14:53:30;34.70;20.00
22532;DHT22;11432;46.924;7.114;2022-07-30T14:55:56;35.00;17.20
22532;DHT22;11432;46.924;7.114;2022-07-30T14:58:22;34.60;17.20
22532;DHT22;11432;46.924;7.114;2022-07-30T15:00:48;34.40;20.90
22532;DHT22;11432;46.924;7.114;2022-07-30T15:03:13;35.00;18.30
22532;DHT22;11432;46.924;7.114;2022-07-30T15:05:39;34.20;18.30
22532;DHT22;11432;46.924;7.114;2022-07-30T15:08:05;34.40;15.60
22532;DHT22;11432;46.924;7.114;2022-07-30T15:10:30;34.80;16.10
22532;DHT22;11432;46.924;7.114;2022-07-30T15:12:56;34.40;17.70
22532;DHT22;11432;46.924;7.114;2022-07-30T15:15:22;33.40;17.00
22532;DHT22;11432;46.924;7.114;2022-07-30T15:17:47;32.20;17.30
22532;DHT22;11432;46.924;7.114;2022-07-30T15:20:13;30.60;20.50
22532;DHT22;11432;46.924;7.114;2022-07-30T15:22:38;29.60;22.20
22532;DHT22;11432;46.924;7.114;2022-07-30T15:25:05;30.40;19.90
22532;DHT22;11432;46.924;7.114;2022-07-30T15:27:31;30.50;22.50
22532;DHT22;11432;46.924;7.114;2022-07-30T15:29:57;30.00;22.30
22532;DHT22;11432;46.924;7.114;2022-07-30T15:32:22;31.40;19.90
22532;DHT22;11432;46.924;7.114;2022-07-30T15:34:48;32.70;19.40
22532;DHT22;11432;46.924;7.114;2022-07-30T15:37:13;33.70;18.60
22532;DHT22;11432;46.924;7.114;2022-07-30T15:39:40;33.80;17.70
22532;DHT22;11432;46.924;7.114;2022-07-30T15:42:06;33.50;16.40
22532;DHT22;11432;46.924;7.114;2022-07-30T15:44:32;32.80;17.30
22532;DHT22;11432;46.924;7.114;2022-07-30T15:46:58;33.00;16.50
22532;DHT22;11432;46.924;7.114;2022-07-30T15:49:24;32.00;16.60
22532;DHT22;11432;46.924;7.114;2022-07-30T15:51:50;32.20;16.70
22532;DHT22;11432;46.924;7.114;2022-07-30T15:54:17;32.20;16.30
22532;DHT22;11432;46.924;7.114;2022-07-30T15:56:44;32.20;16.30
22532;DHT22;11432;46.924;7.114;2022-07-30T15:59:11;32.10;18.10
22532;DHT22;11432;46.924;7.114;2022-07-30T16:01:36;32.70;17.60
22532;DHT22;11432;46.924;7.114;2022-07-30T16:04:02;32.80;19.90